sensor_id;sensor_type;location;lat;lon;timestamp;P1;durP1;ratioP1;P2;durP2;ratioP2
23163;SDS011;31429;42.674;23.350;2024-03-23T00:54:05;34.35;;;21.85;;
23163;SDS011;31429;42.674;23.350;2024-03-23T00:57:03;35.80;;;22.48;;
23163;SDS011;31429;42.674;23.350;2024-03-23T01:03:52;31.83;;;22.05;;
23163;SDS011;31429;42.674;23.350;2024-03-23T01:04:53;30.67;;;21.70;;
23163;SDS011;31429;42.674;23.350;2024-03-23T01:23:18;35.17;;;21.50;;
23163;SDS011;31429;42.674;23.350;2024-03-23T01:41:07;31.00;;;20.20;;
23163;SDS011;31429;42.674;23.350;2024-03-23T02:31:12;46.08;;;26.65;;
23163;SDS011;31429;42.674;23.350;2024-03-23T02:43:32;37.03;;;24.70;;
23163;SDS011;31429;42.674;23.350;2024-03-23T02:55:03;37.40;;;25.40;;
23163;SDS011;31429;42.674;23.350;2024-03-23T02:56:25;36.88;;;26.55;;
23163;SDS011;31429;42.674;23.350;2024-03-23T02:59:29;40.38;;;25.80;;
23163;SDS011;31429;42.674;23.350;2024-03-23T03:02:29;34.20;;;24.45;;
23163;SDS011;31429;42.674;23.350;2024-03-23T03:11:27;36.60;;;24.48;;
23163;SDS011;31429;42.674;23.350;2024-03-23T03:16:31;39.70;;;25.48;;
23163;SDS011;31429;42.674;23.350;2024-03-23T03:23:07;37.30;;;24.98;;
23163;SDS011;31429;42.674;23.350;2024-03-23T03:29:30;41.38;;;27.10;;
23163;SDS011;31429;42.674;23.350;2024-03-23T03:32:24;40.55;;;25.92;;
23163;SDS011;31429;42.674;23.350;2024-03-23T03:35:22;39.33;;;25.77;;
23163;SDS011;31429;42.674;23.350;2024-03-23T03:38:24;38.15;;;26.05;;
23163;SDS011;31429;42.674;23.350;2024-03-23T03:45:02;39.00;;;26.88;;
23163;SDS011;31429;42.674;23.350;2024-03-23T03:54:12;36.20;;;23.98;;
23163;SDS011;31429;42.674;23.350;2024-03-23T03:58:13;36.25;;;24.40;;
23163;SDS011;31429;42.674;23.350;2024-03-23T04:03:57;35.65;;;24.92;;
23163;SDS011;31429;42.674;23.350;2024-03-23T04:08:38;31.63;;;22.05;;
23163;SDS011;31429;42.674;23.350;2024-03-23T04:13:47;36.97;;;23.02;;
23163;SDS011;31429;42.674;23.350;2024-03-23T04:18:51;28.73;;;21.20;;
23163;SDS011;31429;42.674;23.350;2024-03-23T04:23:08;28.00;;;20.48;;
23163;SDS011;31429;42.674;23.350;2024-03-23T04:25:55;27.25;;;20.65;;
23163;SDS011;31429;42.674;23.350;2024-03-23T04:35:58;32.75;;;23.98;;
23163;SDS011;31429;42.674;23.350;2024-03-23T04:37:15;38.80;;;24.50;;
23163;SDS011;31429;42.674;23.350;2024-03-23T04:42:10;62.45;;;43.40;;
23163;SDS011;31429;42.674;23.350;2024-03-23T04:47:04;35.97;;;25.17;;
23163;SDS011;31429;42.674;23.350;2024-03-23T05:00:24;30.38;;;18.10;;
23163;SDS011;31429;42.674;23.350;2024-03-23T05:01:58;32.28;;;21.30;;
23163;SDS011;31429;42.674;23.350;2024-03-23T05:03:10;30.33;;;21.27;;
23163;SDS011;31429;42.674;23.350;2024-03-23T05:06:07;26.65;;;18.08;;
23163;SDS011;31429;42.674;23.350;2024-03-23T05:07:08;22.93;;;18.13;;
23163;SDS011;31429;42.674;23.350;2024-03-23T05:16:30;28.67;;;19.13;;
23163;SDS011;31429;42.674;23.350;2024-03-23T05:24:28;29.95;;;22.00;;
23163;SDS011;31429;42.674;23.350;2024-03-23T05:25:30;29.00;;;20.23;;
23163;SDS011;31429;42.674;23.350;2024-03-23T05:28:29;30.33;;;20.40;;
23163;SDS011;31429;42.674;23.350;2024-03-23T05:29:30;27.63;;;18.95;;
23163;SDS011;31429;42.674;23.350;2024-03-23T05:33:52;34.38;;;21.48;;
23163;SDS011;31429;42.674;23.350;2024-03-23T05:39:55;78.78;;;51.85;;
23163;SDS011;31429;42.674;23.350;2024-03-23T05:41:07;71.68;;;48.50;;
23163;SDS011;31429;42.674;23.350;2024-03-23T05:42:08;79.72;;;51.72;;
23163;SDS011;31429;42.674;23.350;2024-03-23T05:43:09;149.97;;;99.43;;
23163;SDS011;31429;42.674;23.350;2024-03-23T05:45:43;113.90;;;75.75;;
23163;SDS011;31429;42.674;23.350;2024-03-23T05:50:05;120.13;;;73.05;;
23163;SDS011;31429;42.674;23.350;2024-03-23T06:00:32;174.88;;;110.30;;
23163;SDS011;31429;42.674;23.350;2024-03-23T06:05:21;57.97;;;38.40;;
23163;SDS011;31429;42.674;23.350;2024-03-23T06:10:16;40.90;;;25.80;;
23163;SDS011;31429;42.674;23.350;2024-03-23T06:13:14;28.23;;;17.60;;
23163;SDS011;31429;42.674;23.350;2024-03-23T06:16:12;35.72;;;22.60;;
23163;SDS011;31429;42.674;23.350;2024-03-23T06:19:10;36.10;;;22.02;;
23163;SDS011;31429;42.674;23.350;2024-03-23T06:20:11;46.17;;;25.80;;
23163;SDS011;31429;42.674;23.350;2024-03-23T06:26:26;28.63;;;18.15;;
23163;SDS011;31429;42.674;23.350;2024-03-23T06:38:37;22.17;;;15.68;;
23163;SDS011;31429;42.674;23.350;2024-03-23T06:39:38;27.92;;;15.40;;
23163;SDS011;31429;42.674;23.350;2024-03-23T06:42:36;21.85;;;15.15;;
23163;SDS011;31429;42.674;23.350;2024-03-23T06:49:27;32.55;;;16.50;;
23163;SDS011;31429;42.674;23.350;2024-03-23T06:57:31;22.65;;;14.35;;
23163;SDS011;31429;42.674;23.350;2024-03-23T07:00:29;20.60;;;14.95;;
23163;SDS011;31429;42.674;23.350;2024-03-23T07:01:30;22.05;;;14.38;;
23163;SDS011;31429;42.674;23.350;2024-03-23T07:02:31;24.35;;;15.80;;
23163;SDS011;31429;42.674;23.350;2024-03-23T07:03:32;18.63;;;14.33;;
23163;SDS011;31429;42.674;23.350;2024-03-23T07:04:33;22.67;;;14.50;;
23163;SDS011;31429;42.674;23.350;2024-03-23T07:05:33;21.80;;;14.47;;
23163;SDS011;31429;42.674;23.350;2024-03-23T07:06:42;19.47;;;14.67;;
23163;SDS011;31429;42.674;23.350;2024-03-23T07:07:43;28.65;;;15.88;;
23163;SDS011;31429;42.674;23.350;2024-03-23T07:08:46;21.65;;;15.27;;
23163;SDS011;31429;42.674;23.350;2024-03-23T07:09:56;20.83;;;14.48;;
23163;SDS011;31429;42.674;23.350;2024-03-23T07:10:58;21.70;;;14.90;;
23163;SDS011;31429;42.674;23.350;2024-03-23T07:12:00;27.48;;;16.25;;
23163;SDS011;31429;42.674;23.350;2024-03-23T07:13:01;23.08;;;16.23;;
23163;SDS011;31429;42.674;23.350;2024-03-23T07:14:03;23.08;;;15.40;;
23163;SDS011;31429;42.674;23.350;2024-03-23T07:15:09;20.30;;;15.30;;
23163;SDS011;31429;42.674;23.350;2024-03-23T07:16:11;25.20;;;15.90;;
23163;SDS011;31429;42.674;23.350;2024-03-23T07:17:15;26.77;;;15.25;;
23163;SDS011;31429;42.674;23.350;2024-03-23T07:18:19;23.67;;;16.35;;
23163;SDS011;31429;42.674;23.350;2024-03-23T07:19:20;25.67;;;16.42;;
23163;SDS011;31429;42.674;23.350;2024-03-23T07:20:21;22.67;;;15.88;;
23163;SDS011;31429;42.674;23.350;2024-03-23T07:21:22;23.33;;;15.35;;
23163;SDS011;31429;42.674;23.350;2024-03-23T07:22:23;21.05;;;15.98;;
23163;SDS011;31429;42.674;23.350;2024-03-23T07:23:24;22.75;;;16.17;;
23163;SDS011;31429;42.674;23.350;2024-03-23T07:24:28;23.30;;;16.35;;
23163;SDS011;31429;42.674;23.350;2024-03-23T07:25:31;23.95;;;16.58;;
23163;SDS011;31429;42.674;23.350;2024-03-23T07:26:32;26.35;;;15.55;;
23163;SDS011;31429;42.674;23.350;2024-03-23T07:27:34;23.67;;;15.87;;
23163;SDS011;31429;42.674;23.350;2024-03-23T07:28:35;21.73;;;14.32;;
23163;SDS011;31429;42.674;23.350;2024-03-23T07:29:36;19.65;;;15.38;;
23163;SDS011;31429;42.674;23.350;2024-03-23T07:30:37;27.07;;;15.97;;
23163;SDS011;31429;42.674;23.350;2024-03-23T07:31:40;25.00;;;17.17;;
23163;SDS011;31429;42.674;23.350;2024-03-23T07:32:43;24.33;;;17.80;;
23163;SDS011;31429;42.674;23.350;2024-03-23T07:33:45;31.63;;;17.23;;
23163;SDS011;31429;42.674;23.350;2024-03-23T07:34:49;24.60;;;16.63;;
23163;SDS011;31429;42.674;23.350;2024-03-23T07:35:50;24.23;;;17.13;;
23163;SDS011;31429;42.674;23.350;2024-03-23T07:36:50;24.83;;;15.73;;
23163;SDS011;31429;42.674;23.350;2024-03-23T07:37:51;24.63;;;16.53;;
23163;SDS011;31429;42.674;23.350;2024-03-23T07:38:52;27.50;;;16.40;;
23163;SDS011;31429;42.674;23.350;2024-03-23T07:39:53;25.30;;;16.55;;
23163;SDS011;31429;42.674;23.350;2024-03-23T07:41:02;28.60;;;17.17;;
23163;SDS011;31429;42.674;23.350;2024-03-23T07:42:04;29.15;;;17.75;;
23163;SDS011;31429;42.674;23.350;2024-03-23T07:43:06;32.15;;;18.45;;
23163;SDS011;31429;42.674;23.350;2024-03-23T07:44:07;24.17;;;17.75;;
23163;SDS011;31429;42.674;23.350;2024-03-23T07:45:08;25.57;;;18.60;;
23163;SDS011;31429;42.674;23.350;2024-03-23T07:46:09;25.85;;;17.77;;
23163;SDS011;31429;42.674;23.350;2024-03-23T07:47:10;22.63;;;17.03;;
23163;SDS011;31429;42.674;23.350;2024-03-23T07:48:11;34.67;;;18.13;;
23163;SDS011;31429;42.674;23.350;2024-03-23T07:49:12;26.90;;;17.30;;
23163;SDS011;31429;42.674;23.350;2024-03-23T07:50:13;30.10;;;18.60;;
23163;SDS011;31429;42.674;23.350;2024-03-23T07:51:16;25.85;;;17.65;;
23163;SDS011;31429;42.674;23.350;2024-03-23T07:52:17;23.02;;;17.48;;
23163;SDS011;31429;42.674;23.350;2024-03-23T07:53:18;28.97;;;18.00;;
23163;SDS011;31429;42.674;23.350;2024-03-23T07:54:19;23.93;;;16.70;;
23163;SDS011;31429;42.674;23.350;2024-03-23T07:55:20;26.90;;;17.93;;
23163;SDS011;31429;42.674;23.350;2024-03-23T07:56:21;30.73;;;17.52;;
23163;SDS011;31429;42.674;23.350;2024-03-23T07:57:23;25.35;;;17.80;;
23163;SDS011;31429;42.674;23.350;2024-03-23T07:58:25;26.70;;;17.57;;
23163;SDS011;31429;42.674;23.350;2024-03-23T07:59:27;37.90;;;18.15;;
23163;SDS011;31429;42.674;23.350;2024-03-23T08:00:47;33.22;;;18.85;;
23163;SDS011;31429;42.674;23.350;2024-03-23T08:01:48;31.77;;;18.73;;
23163;SDS011;31429;42.674;23.350;2024-03-23T08:03:09;30.75;;;18.83;;
23163;SDS011;31429;42.674;23.350;2024-03-23T08:04:09;25.27;;;18.17;;
23163;SDS011;31429;42.674;23.350;2024-03-23T08:05:10;28.97;;;18.30;;
23163;SDS011;31429;42.674;23.350;2024-03-23T08:06:11;28.60;;;17.92;;
23163;SDS011;31429;42.674;23.350;2024-03-23T08:07:13;28.98;;;17.83;;
23163;SDS011;31429;42.674;23.350;2024-03-23T08:08:14;29.20;;;18.47;;
23163;SDS011;31429;42.674;23.350;2024-03-23T08:09:15;27.03;;;18.20;;
23163;SDS011;31429;42.674;23.350;2024-03-23T08:10:16;23.43;;;18.13;;
23163;SDS011;31429;42.674;23.350;2024-03-23T08:11:36;25.38;;;17.60;;
23163;SDS011;31429;42.674;23.350;2024-03-23T08:12:57;24.30;;;17.77;;
23163;SDS011;31429;42.674;23.350;2024-03-23T08:13:59;28.27;;;18.70;;
23163;SDS011;31429;42.674;23.350;2024-03-23T08:15:01;29.30;;;19.23;;
23163;SDS011;31429;42.674;23.350;2024-03-23T08:16:02;28.20;;;18.23;;
23163;SDS011;31429;42.674;23.350;2024-03-23T08:17:24;32.00;;;17.52;;
23163;SDS011;31429;42.674;23.350;2024-03-23T08:18:24;23.17;;;18.27;;
23163;SDS011;31429;42.674;23.350;2024-03-23T08:19:25;24.40;;;17.67;;
23163;SDS011;31429;42.674;23.350;2024-03-23T08:20:26;27.87;;;16.83;;
23163;SDS011;31429;42.674;23.350;2024-03-23T08:21:27;26.07;;;17.63;;
23163;SDS011;31429;42.674;23.350;2024-03-23T08:22:28;30.03;;;18.53;;
23163;SDS011;31429;42.674;23.350;2024-03-23T08:23:29;23.87;;;17.93;;
23163;SDS011;31429;42.674;23.350;2024-03-23T08:24:49;29.20;;;17.40;;
23163;SDS011;31429;42.674;23.350;2024-03-23T08:25:52;31.08;;;18.02;;
23163;SDS011;31429;42.674;23.350;2024-03-23T08:26:57;31.77;;;17.63;;
23163;SDS011;31429;42.674;23.350;2024-03-23T08:27:58;25.70;;;18.30;;
23163;SDS011;31429;42.674;23.350;2024-03-23T08:29:00;27.47;;;18.07;;
23163;SDS011;31429;42.674;23.350;2024-03-23T08:30:01;27.08;;;18.15;;
23163;SDS011;31429;42.674;23.350;2024-03-23T08:31:03;29.35;;;19.10;;
23163;SDS011;31429;42.674;23.350;2024-03-23T08:32:05;28.30;;;19.52;;
23163;SDS011;31429;42.674;23.350;2024-03-23T08:33:06;26.70;;;18.13;;
23163;SDS011;31429;42.674;23.350;2024-03-23T08:34:07;24.47;;;18.20;;
23163;SDS011;31429;42.674;23.350;2024-03-23T08:35:08;25.73;;;17.40;;
23163;SDS011;31429;42.674;23.350;2024-03-23T08:36:10;26.00;;;17.92;;
23163;SDS011;31429;42.674;23.350;2024-03-23T08:37:17;26.80;;;17.52;;
23163;SDS011;31429;42.674;23.350;2024-03-23T08:38:18;26.70;;;17.93;;
23163;SDS011;31429;42.674;23.350;2024-03-23T08:39:18;23.37;;;17.47;;
23163;SDS011;31429;42.674;23.350;2024-03-23T08:40:19;28.73;;;17.23;;
23163;SDS011;31429;42.674;23.350;2024-03-23T08:41:20;25.90;;;16.77;;
23163;SDS011;31429;42.674;23.350;2024-03-23T08:42:39;27.85;;;18.23;;
23163;SDS011;31429;42.674;23.350;2024-03-23T08:43:40;24.93;;;17.53;;
23163;SDS011;31429;42.674;23.350;2024-03-23T08:44:43;33.72;;;17.65;;
23163;SDS011;31429;42.674;23.350;2024-03-23T08:45:46;35.40;;;17.63;;
23163;SDS011;31429;42.674;23.350;2024-03-23T08:46:47;24.73;;;16.07;;
23163;SDS011;31429;42.674;23.350;2024-03-23T08:47:48;26.50;;;17.05;;
23163;SDS011;31429;42.674;23.350;2024-03-23T08:48:49;24.73;;;18.23;;
23163;SDS011;31429;42.674;23.350;2024-03-23T08:49:52;28.48;;;18.02;;
23163;SDS011;31429;42.674;23.350;2024-03-23T08:50:58;26.03;;;17.13;;
23163;SDS011;31429;42.674;23.350;2024-03-23T08:52:00;25.20;;;16.42;;
23163;SDS011;31429;42.674;23.350;2024-03-23T08:53:01;26.77;;;17.03;;
23163;SDS011;31429;42.674;23.350;2024-03-23T08:54:01;24.20;;;16.77;;
23163;SDS011;31429;42.674;23.350;2024-03-23T08:55:02;23.23;;;16.50;;
23163;SDS011;31429;42.674;23.350;2024-03-23T08:56:05;27.08;;;17.88;;
23163;SDS011;31429;42.674;23.350;2024-03-23T08:57:25;26.45;;;16.88;;
23163;SDS011;31429;42.674;23.350;2024-03-23T08:58:26;23.13;;;17.57;;
23163;SDS011;31429;42.674;23.350;2024-03-23T08:59:28;33.17;;;19.02;;
23163;SDS011;31429;42.674;23.350;2024-03-23T09:00:30;25.20;;;17.50;;
23163;SDS011;31429;42.674;23.350;2024-03-23T09:01:31;30.23;;;17.35;;
23163;SDS011;31429;42.674;23.350;2024-03-23T09:02:32;24.37;;;17.33;;
23163;SDS011;31429;42.674;23.350;2024-03-23T09:03:33;26.80;;;16.55;;
23163;SDS011;31429;42.674;23.350;2024-03-23T09:04:54;20.80;;;15.93;;
23163;SDS011;31429;42.674;23.350;2024-03-23T09:05:55;23.97;;;16.27;;
23163;SDS011;31429;42.674;23.350;2024-03-23T09:06:55;23.43;;;16.30;;
23163;SDS011;31429;42.674;23.350;2024-03-23T09:08:16;25.00;;;16.30;;
23163;SDS011;31429;42.674;23.350;2024-03-23T09:09:17;25.43;;;17.00;;
23163;SDS011;31429;42.674;23.350;2024-03-23T09:10:18;25.60;;;15.47;;
23163;SDS011;31429;42.674;23.350;2024-03-23T09:11:18;28.80;;;16.77;;
23163;SDS011;31429;42.674;23.350;2024-03-23T09:12:19;28.03;;;17.13;;
23163;SDS011;31429;42.674;23.350;2024-03-23T09:13:20;25.90;;;16.20;;
23163;SDS011;31429;42.674;23.350;2024-03-23T09:14:21;26.63;;;16.27;;
23163;SDS011;31429;42.674;23.350;2024-03-23T09:15:22;26.03;;;16.33;;
23163;SDS011;31429;42.674;23.350;2024-03-23T09:16:24;28.87;;;16.20;;
23163;SDS011;31429;42.674;23.350;2024-03-23T09:17:25;31.98;;;17.02;;
23163;SDS011;31429;42.674;23.350;2024-03-23T09:18:26;25.33;;;16.87;;
23163;SDS011;31429;42.674;23.350;2024-03-23T09:19:27;24.50;;;16.43;;
23163;SDS011;31429;42.674;23.350;2024-03-23T09:20:48;26.00;;;16.93;;
23163;SDS011;31429;42.674;23.350;2024-03-23T09:21:49;27.13;;;16.63;;
23163;SDS011;31429;42.674;23.350;2024-03-23T09:22:50;25.53;;;16.63;;
23163;SDS011;31429;42.674;23.350;2024-03-23T09:23:50;23.60;;;16.43;;
23163;SDS011;31429;42.674;23.350;2024-03-23T09:24:51;29.90;;;17.70;;
23163;SDS011;31429;42.674;23.350;2024-03-23T09:25:52;22.33;;;16.77;;
23163;SDS011;31429;42.674;23.350;2024-03-23T09:26:53;26.77;;;16.93;;
23163;SDS011;31429;42.674;23.350;2024-03-23T09:27:54;23.17;;;16.53;;
23163;SDS011;31429;42.674;23.350;2024-03-23T09:28:55;24.97;;;16.97;;
23163;SDS011;31429;42.674;23.350;2024-03-23T09:29:55;22.13;;;16.40;;
23163;SDS011;31429;42.674;23.350;2024-03-23T09:31:01;25.17;;;15.20;;
23163;SDS011;31429;42.674;23.350;2024-03-23T09:32:04;27.90;;;17.03;;
23163;SDS011;31429;42.674;23.350;2024-03-23T09:33:05;26.60;;;15.93;;
23163;SDS011;31429;42.674;23.350;2024-03-23T09:34:06;22.80;;;17.00;;
23163;SDS011;31429;42.674;23.350;2024-03-23T09:35:07;25.23;;;16.23;;
23163;SDS011;31429;42.674;23.350;2024-03-23T09:36:08;27.83;;;17.60;;
23163;SDS011;31429;42.674;23.350;2024-03-23T09:37:09;22.33;;;16.80;;
23163;SDS011;31429;42.674;23.350;2024-03-23T09:38:10;27.57;;;17.10;;
23163;SDS011;31429;42.674;23.350;2024-03-23T09:39:11;23.37;;;16.27;;
23163;SDS011;31429;42.674;23.350;2024-03-23T09:40:12;26.67;;;16.20;;
23163;SDS011;31429;42.674;23.350;2024-03-23T09:41:12;28.27;;;16.37;;
23163;SDS011;31429;42.674;23.350;2024-03-23T09:42:33;27.37;;;17.10;;
23163;SDS011;31429;42.674;23.350;2024-03-23T09:43:34;21.33;;;14.87;;
23163;SDS011;31429;42.674;23.350;2024-03-23T09:44:35;27.63;;;16.27;;
23163;SDS011;31429;42.674;23.350;2024-03-23T09:45:38;23.23;;;16.43;;
23163;SDS011;31429;42.674;23.350;2024-03-23T09:46:57;24.17;;;15.47;;
23163;SDS011;31429;42.674;23.350;2024-03-23T09:47:59;28.90;;;17.27;;
23163;SDS011;31429;42.674;23.350;2024-03-23T09:49:00;35.60;;;17.93;;
23163;SDS011;31429;42.674;23.350;2024-03-23T09:50:03;36.90;;;19.47;;
23163;SDS011;31429;42.674;23.350;2024-03-23T09:51:05;32.37;;;17.27;;
23163;SDS011;31429;42.674;23.350;2024-03-23T09:52:25;29.90;;;16.77;;
23163;SDS011;31429;42.674;23.350;2024-03-23T09:53:26;29.80;;;16.57;;
23163;SDS011;31429;42.674;23.350;2024-03-23T09:54:27;24.83;;;17.00;;
23163;SDS011;31429;42.674;23.350;2024-03-23T09:55:28;24.37;;;15.97;;
23163;SDS011;31429;42.674;23.350;2024-03-23T09:56:29;25.00;;;16.23;;
23163;SDS011;31429;42.674;23.350;2024-03-23T09:57:30;24.53;;;16.57;;
23163;SDS011;31429;42.674;23.350;2024-03-23T09:58:30;21.17;;;15.90;;
23163;SDS011;31429;42.674;23.350;2024-03-23T09:59:32;25.33;;;15.77;;
23163;SDS011;31429;42.674;23.350;2024-03-23T10:00:53;25.97;;;16.17;;
23163;SDS011;31429;42.674;23.350;2024-03-23T10:01:54;23.40;;;16.00;;
23163;SDS011;31429;42.674;23.350;2024-03-23T10:02:55;25.37;;;15.53;;
23163;SDS011;31429;42.674;23.350;2024-03-23T10:04:00;21.03;;;14.33;;
23163;SDS011;31429;42.674;23.350;2024-03-23T10:05:01;23.60;;;15.43;;
23163;SDS011;31429;42.674;23.350;2024-03-23T10:06:02;20.97;;;15.20;;
23163;SDS011;31429;42.674;23.350;2024-03-23T10:07:13;24.87;;;15.57;;
23163;SDS011;31429;42.674;23.350;2024-03-23T10:08:17;23.37;;;14.97;;
23163;SDS011;31429;42.674;23.350;2024-03-23T10:09:21;19.73;;;14.37;;
23163;SDS011;31429;42.674;23.350;2024-03-23T10:10:22;22.13;;;14.00;;
23163;SDS011;31429;42.674;23.350;2024-03-23T10:11:25;28.70;;;15.07;;
23163;SDS011;31429;42.674;23.350;2024-03-23T10:12:27;22.40;;;15.67;;
23163;SDS011;31429;42.674;23.350;2024-03-23T10:13:28;27.43;;;16.47;;
23163;SDS011;31429;42.674;23.350;2024-03-23T10:14:31;26.40;;;15.50;;
23163;SDS011;31429;42.674;23.350;2024-03-23T10:15:33;18.47;;;14.63;;
23163;SDS011;31429;42.674;23.350;2024-03-23T10:16:35;27.40;;;18.07;;
23163;SDS011;31429;42.674;23.350;2024-03-23T10:17:35;27.73;;;16.97;;
23163;SDS011;31429;42.674;23.350;2024-03-23T10:18:38;39.20;;;17.57;;
23163;SDS011;31429;42.674;23.350;2024-03-23T10:20:00;30.10;;;16.93;;
23163;SDS011;31429;42.674;23.350;2024-03-23T10:21:07;36.03;;;19.40;;
23163;SDS011;31429;42.674;23.350;2024-03-23T10:22:12;23.77;;;16.53;;
23163;SDS011;31429;42.674;23.350;2024-03-23T10:23:15;31.27;;;21.30;;
23163;SDS011;31429;42.674;23.350;2024-03-23T10:24:16;19.60;;;14.73;;
23163;SDS011;31429;42.674;23.350;2024-03-23T10:25:17;21.43;;;16.57;;
23163;SDS011;31429;42.674;23.350;2024-03-23T10:26:23;19.67;;;13.93;;
23163;SDS011;31429;42.674;23.350;2024-03-23T10:27:27;19.43;;;15.00;;
23163;SDS011;31429;42.674;23.350;2024-03-23T10:28:28;45.10;;;33.07;;
23163;SDS011;31429;42.674;23.350;2024-03-23T10:29:29;20.93;;;14.67;;
23163;SDS011;31429;42.674;23.350;2024-03-23T10:30:30;37.23;;;24.47;;
23163;SDS011;31429;42.674;23.350;2024-03-23T10:31:31;35.00;;;23.20;;
23163;SDS011;31429;42.674;23.350;2024-03-23T10:32:32;25.10;;;13.37;;
23163;SDS011;31429;42.674;23.350;2024-03-23T10:33:32;41.73;;;26.47;;
23163;SDS011;31429;42.674;23.350;2024-03-23T10:34:35;38.17;;;23.37;;
23163;SDS011;31429;42.674;23.350;2024-03-23T10:35:38;36.70;;;17.97;;
23163;SDS011;31429;42.674;23.350;2024-03-23T10:36:38;16.50;;;12.03;;
23163;SDS011;31429;42.674;23.350;2024-03-23T10:38:02;17.07;;;12.50;;
23163;SDS011;31429;42.674;23.350;2024-03-23T10:39:05;17.20;;;10.73;;
23163;SDS011;31429;42.674;23.350;2024-03-23T10:40:08;17.07;;;13.00;;
23163;SDS011;31429;42.674;23.350;2024-03-23T10:41:31;21.70;;;13.10;;
23163;SDS011;31429;42.674;23.350;2024-03-23T10:42:32;16.13;;;12.00;;
23163;SDS011;31429;42.674;23.350;2024-03-23T10:43:34;20.00;;;13.27;;
23163;SDS011;31429;42.674;23.350;2024-03-23T10:44:36;18.40;;;11.77;;
23163;SDS011;31429;42.674;23.350;2024-03-23T10:45:38;18.97;;;12.50;;
23163;SDS011;31429;42.674;23.350;2024-03-23T10:46:39;16.70;;;10.43;;
23163;SDS011;31429;42.674;23.350;2024-03-23T10:47:39;16.57;;;11.70;;
23163;SDS011;31429;42.674;23.350;2024-03-23T10:48:40;26.07;;;11.70;;
23163;SDS011;31429;42.674;23.350;2024-03-23T10:49:43;19.73;;;13.30;;
23163;SDS011;31429;42.674;23.350;2024-03-23T10:50:45;15.50;;;10.10;;
23163;SDS011;31429;42.674;23.350;2024-03-23T10:51:46;13.77;;;10.40;;
23163;SDS011;31429;42.674;23.350;2024-03-23T10:52:47;16.97;;;11.53;;
23163;SDS011;31429;42.674;23.350;2024-03-23T10:53:48;16.97;;;11.40;;
23163;SDS011;31429;42.674;23.350;2024-03-23T10:54:51;18.80;;;11.37;;
23163;SDS011;31429;42.674;23.350;2024-03-23T10:55:52;30.40;;;12.53;;
23163;SDS011;31429;42.674;23.350;2024-03-23T10:56:57;22.30;;;13.63;;
23163;SDS011;31429;42.674;23.350;2024-03-23T10:58:02;17.30;;;12.50;;
23163;SDS011;31429;42.674;23.350;2024-03-23T10:59:03;16.27;;;10.90;;
23163;SDS011;31429;42.674;23.350;2024-03-23T11:00:07;14.63;;;10.50;;
23163;SDS011;31429;42.674;23.350;2024-03-23T11:01:10;15.37;;;9.90;;
23163;SDS011;31429;42.674;23.350;2024-03-23T11:02:18;14.43;;;10.57;;
23163;SDS011;31429;42.674;23.350;2024-03-23T11:03:30;17.60;;;11.53;;
23163;SDS011;31429;42.674;23.350;2024-03-23T11:04:38;15.47;;;10.73;;
23163;SDS011;31429;42.674;23.350;2024-03-23T11:05:39;16.63;;;10.53;;
23163;SDS011;31429;42.674;23.350;2024-03-23T11:06:48;14.03;;;11.07;;
23163;SDS011;31429;42.674;23.350;2024-03-23T11:07:49;15.13;;;11.20;;
23163;SDS011;31429;42.674;23.350;2024-03-23T11:08:51;15.90;;;11.37;;
23163;SDS011;31429;42.674;23.350;2024-03-23T11:09:51;19.37;;;11.33;;
23163;SDS011;31429;42.674;23.350;2024-03-23T11:10:53;16.47;;;12.07;;
23163;SDS011;31429;42.674;23.350;2024-03-23T11:11:55;19.00;;;12.10;;
23163;SDS011;31429;42.674;23.350;2024-03-23T11:12:56;20.43;;;11.70;;
23163;SDS011;31429;42.674;23.350;2024-03-23T11:13:58;16.33;;;11.50;;
23163;SDS011;31429;42.674;23.350;2024-03-23T11:15:00;21.97;;;12.07;;
23163;SDS011;31429;42.674;23.350;2024-03-23T11:16:12;14.20;;;10.67;;
23163;SDS011;31429;42.674;23.350;2024-03-23T11:17:17;13.07;;;9.20;;
23163;SDS011;31429;42.674;23.350;2024-03-23T11:18:20;13.63;;;9.03;;
23163;SDS011;31429;42.674;23.350;2024-03-23T11:19:34;13.93;;;9.40;;
23163;SDS011;31429;42.674;23.350;2024-03-23T11:22:50;12.83;;;9.53;;
23163;SDS011;31429;42.674;23.350;2024-03-23T11:24:13;14.20;;;9.47;;
23163;SDS011;31429;42.674;23.350;2024-03-23T11:25:15;11.90;;;9.63;;
23163;SDS011;31429;42.674;23.350;2024-03-23T11:26:38;12.07;;;9.43;;
23163;SDS011;31429;42.674;23.350;2024-03-23T11:27:39;14.23;;;9.80;;
23163;SDS011;31429;42.674;23.350;2024-03-23T11:28:40;10.40;;;9.27;;
23163;SDS011;31429;42.674;23.350;2024-03-23T11:29:41;12.47;;;8.87;;
23163;SDS011;31429;42.674;23.350;2024-03-23T11:30:41;17.77;;;9.70;;
23163;SDS011;31429;42.674;23.350;2024-03-23T11:32:02;14.77;;;9.27;;
23163;SDS011;31429;42.674;23.350;2024-03-23T11:33:23;15.60;;;10.07;;
23163;SDS011;31429;42.674;23.350;2024-03-23T11:34:24;13.73;;;10.00;;
23163;SDS011;31429;42.674;23.350;2024-03-23T11:35:28;18.70;;;10.27;;
23163;SDS011;31429;42.674;23.350;2024-03-23T11:36:49;19.50;;;10.70;;
23163;SDS011;31429;42.674;23.350;2024-03-23T11:38:11;17.57;;;10.83;;
23163;SDS011;31429;42.674;23.350;2024-03-23T11:39:36;17.53;;;10.37;;
23163;SDS011;31429;42.674;23.350;2024-03-23T11:40:38;13.00;;;9.97;;
23163;SDS011;31429;42.674;23.350;2024-03-23T11:41:59;16.03;;;9.40;;
23163;SDS011;31429;42.674;23.350;2024-03-23T11:43:00;13.83;;;9.50;;
23163;SDS011;31429;42.674;23.350;2024-03-23T11:44:41;13.43;;;8.87;;
23163;SDS011;31429;42.674;23.350;2024-03-23T11:45:42;14.73;;;9.13;;
23163;SDS011;31429;42.674;23.350;2024-03-23T11:46:45;15.37;;;9.50;;
23163;SDS011;31429;42.674;23.350;2024-03-23T11:47:46;16.73;;;9.70;;
23163;SDS011;31429;42.674;23.350;2024-03-23T11:48:49;14.13;;;9.30;;
23163;SDS011;31429;42.674;23.350;2024-03-23T11:49:51;18.73;;;9.57;;
23163;SDS011;31429;42.674;23.350;2024-03-23T11:50:53;18.73;;;9.43;;
23163;SDS011;31429;42.674;23.350;2024-03-23T11:51:56;15.20;;;9.30;;
23163;SDS011;31429;42.674;23.350;2024-03-23T11:54:20;20.27;;;9.97;;
23163;SDS011;31429;42.674;23.350;2024-03-23T11:55:21;12.27;;;9.30;;
23163;SDS011;31429;42.674;23.350;2024-03-23T11:56:22;17.27;;;9.47;;
23163;SDS011;31429;42.674;23.350;2024-03-23T11:57:22;14.47;;;8.87;;
23163;SDS011;31429;42.674;23.350;2024-03-23T11:58:24;10.80;;;8.77;;
23163;SDS011;31429;42.674;23.350;2024-03-23T11:59:32;14.37;;;9.23;;
23163;SDS011;31429;42.674;23.350;2024-03-23T12:00:34;14.77;;;9.07;;
23163;SDS011;31429;42.674;23.350;2024-03-23T12:01:34;12.00;;;9.33;;
23163;SDS011;31429;42.674;23.350;2024-03-23T12:02:37;15.87;;;9.43;;
23163;SDS011;31429;42.674;23.350;2024-03-23T12:03:38;13.07;;;8.60;;
23163;SDS011;31429;42.674;23.350;2024-03-23T12:04:39;16.87;;;9.60;;
23163;SDS011;31429;42.674;23.350;2024-03-23T12:05:40;13.30;;;8.47;;
23163;SDS011;31429;42.674;23.350;2024-03-23T12:06:40;14.73;;;9.53;;